Time;durP1;ratioP1;P1;durP2;ratioP2;P2;SDS_P1;SDS_P2;PMS_P1;PMS_P2;Temp;Humidity;BMP_temperature;BMP_pressure;BME280_temperature;BME280_humidity;BME280_pressure;Samples;Min_cycle;Max_cycle;Signal;HPM_P1;HPM_P2
2023/03/19 00:00:28;;;;;;;8.52;4.80;;;;;;;12.46;50.66;100319.59;4149576;28;20045;-67
2023/03/19 00:02:31;;;;;;;8.93;4.90;;;;;;;12.44;50.27;100316.09;4173815;28;20033;-67
2023/03/19 00:04:34;;;;;;;10.10;6.00;;;;;;;12.45;50.49;100316.97;4173579;28;20400;-67
2023/03/19 00:06:38;;;;;;;10.23;5.55;;;;;;;12.49;50.04;100323.94;4169716;28;20067;-67
2023/03/19 00:08:41;;;;;;;8.60;4.93;;;;;;;12.47;50.06;100316.13;4167433;28;20390;-67
2023/03/19 00:10:45;;;;;;;10.38;5.75;;;;;;;12.49;49.74;100316.13;4163331;28;20048;-67
2023/03/19 00:12:48;;;;;;;10.02;5.13;;;;;;;12.49;50.02;100316.13;4168305;28;20029;-67
2023/03/19 00:14:50;;;;;;;10.65;5.22;;;;;;;12.49;50.63;100321.34;4176364;28;20407;-67
2023/03/19 00:16:53;;;;;;;9.98;4.95;;;;;;;12.47;50.96;100321.34;4173182;28;20033;-67
2023/03/19 00:18:56;;;;;;;14.10;5.88;;;;;;;12.47;50.65;100321.34;4164941;28;20041;-67
2023/03/19 00:21:00;;;;;;;10.20;5.60;;;;;;;12.46;50.61;100323.94;4166014;28;20044;-67
2023/03/19 00:23:05;;;;;;;9.45;5.30;;;;;;;12.46;50.51;100327.41;4162405;28;20041;-67
2023/03/19 00:25:08;;;;;;;;;;;;;;;12.42;50.16;100328.25;4164399;28;20128;-67
2023/03/19 00:27:11;;;;;;;12.57;6.38;;;;;;;12.44;50.36;100318.72;4171671;28;19995;-67
2023/03/19 00:29:14;;;;;;;14.77;5.65;;;;;;;12.48;50.66;100320.44;4164959;28;20080;-67
2023/03/19 00:31:17;;;;;;;12.93;6.50;;;;;;;12.45;51.02;100328.25;4161888;28;20076;-67
2023/03/19 00:33:20;;;;;;;10.80;5.40;;;;;;;12.42;51.85;100327.38;4162979;28;20038;-67
2023/03/19 00:35:23;;;;;;;13.63;5.10;;;;;;;12.38;51.42;100326.47;4165716;28;20492;-67
2023/03/19 00:37:26;;;;;;;11.10;5.75;;;;;;;12.40;51.11;100325.63;4169446;28;20116;-67
2023/03/19 00:39:31;;;;;;;9.50;5.32;;;;;;;12.40;50.86;100324.78;4151786;28;20066;-67
2023/03/19 00:41:34;;;;;;;9.82;5.22;;;;;;;12.36;51.19;100320.41;4166127;28;20132;-67
2023/03/19 00:43:37;;;;;;;13.00;5.70;;;;;;;12.30;51.24;100333.41;4183515;22;20047;-74
2023/03/19 00:45:41;;;;;;;10.32;4.70;;;;;;;12.29;52.49;100331.66;4178316;28;20041;-74
2023/03/19 00:47:44;;;;;;;8.15;4.40;;;;;;;12.30;53.70;100338.63;4173454;28;20076;-74
2023/03/19 00:49:48;;;;;;;9.52;5.18;;;;;;;12.22;54.47;100334.25;4183549;28;20123;-74
2023/03/19 00:51:51;;;;;;;12.65;5.63;;;;;;;12.20;54.38;100333.34;4167758;28;21976;-74
2023/03/19 00:53:53;;;;;;;12.88;5.75;;;;;;;12.22;53.58;100326.44;4162646;28;20045;-74
2023/03/19 00:55:58;;;;;;;10.82;5.82;;;;;;;12.21;51.98;100329.88;4187259;28;20048;-74
2023/03/19 00:58:01;;;;;;;10.15;5.63;;;;;;;12.19;51.95;100329.03;4168823;28;20444;-74
2023/03/19 01:00:05;;;;;;;9.82;5.60;;;;;;;12.20;51.48;100324.66;4169327;28;20129;-75
2023/03/19 01:02:08;;;;;;;13.35;5.65;;;;;;;12.19;52.09;100326.41;4178227;28;20583;-72
2023/03/19 01:04:11;;;;;;;9.77;5.80;;;;;;;12.23;51.58;100332.50;4166875;28;20037;-71
2023/03/19 01:06:14;;;;;;;15.48;6.25;;;;;;;12.26;51.64;100336.88;4177850;28;20036;-74
2023/03/19 01:08:18;;;;;;;12.35;6.32;;;;;;;12.28;51.35;100329.91;4167223;28;20551;-72
2023/03/19 01:10:22;;;;;;;11.05;5.30;;;;;;;12.28;51.87;100338.63;4159136;28;20053;-71
2023/03/19 01:12:26;;;;;;;11.52;6.13;;;;;;;12.28;52.24;100337.72;4188391;28;20188;-72
2023/03/19 01:14:30;;;;;;;8.93;5.32;;;;;;;12.26;53.75;100345.53;4151769;28;20052;-72
2023/03/19 01:16:33;;;;;;;14.20;6.35;;;;;;;12.22;55.69;100346.38;4181677;28;20731;-72
2023/03/19 01:18:37;;;;;;;9.35;4.90;;;;;;;12.14;56.88;100335.94;4163483;28;20041;-72
2023/03/19 01:20:41;;;;;;;14.15;5.10;;;;;;;12.07;57.57;100336.75;4178237;28;20037;-72
2023/03/19 01:22:45;;;;;;;10.13;6.20;;;;;;;11.99;56.41;100334.09;4165627;28;20072;-71
2023/03/19 01:24:48;;;;;;;12.00;6.25;;;;;;;11.94;56.32;100335.78;4162898;28;20500;-72
2023/03/19 01:26:51;;;;;;;11.77;6.57;;;;;;;11.93;55.62;100338.34;4171391;28;20716;-71
2023/03/19 01:29:03;;;;;;;13.20;6.10;;;;;;;11.91;55.55;100342.69;4175011;28;20044;-72
2023/03/19 01:31:07;;;;;;;12.38;6.40;;;;;;;11.88;55.38;100336.63;4183585;28;20388;-73
2023/03/19 01:33:37;;;;;;;13.23;6.15;;;;;;;11.87;55.44;100333.97;4169802;28;20083;-72
2023/03/19 01:35:52;;;;;;;17.38;6.75;;;;;;;11.87;55.28;100336.59;4172344;28;20449;-72
2023/03/19 01:37:58;;;;;;;13.35;6.40;;;;;;;11.87;55.45;100342.69;4169349;28;20103;-72
2023/03/19 01:40:01;;;;;;;18.90;8.27;;;;;;;11.86;55.94;100338.31;4165958;28;20033;-73
2023/03/19 01:42:04;;;;;;;10.50;5.95;;;;;;;11.85;55.81;100339.19;4159520;28;20120;-72
2023/03/19 01:44:26;;;;;;;10.75;6.47;;;;;;;11.94;55.05;100337.53;4171593;28;20064;-72
2023/03/19 01:47:06;;;;;;;12.18;5.75;;;;;;;11.81;55.51;100336.53;4133953;28;20597;-72
2023/03/19 01:49:19;;;;;;;9.00;5.88;;;;;;;11.87;55.05;100332.25;4156664;28;20038;-73
2023/03/19 01:51:31;;;;;;;11.48;5.95;;;;;;;11.88;54.76;100328.81;4146316;28;20470;-71
2023/03/19 01:53:39;;;;;;;13.35;5.78;;;;;;;11.88;54.74;100334.00;4169909;28;20068;-73
2023/03/19 01:56:12;;;;;;;9.75;4.70;;;;;;;11.88;54.79;100334.00;4171605;28;20052;-73
2023/03/19 01:58:57;;;;;;;8.85;4.63;;;;;;;11.86;54.70;100343.53;4120148;28;20099;-72
2023/03/19 02:01:14;;;;;;;11.38;5.35;;;;;;;11.90;54.53;100338.34;4101554;28;20054;-72
2023/03/19 02:03:21;;;;;;;13.93;5.70;;;;;;;11.92;54.49;100341.84;4106342;28;20118;-72
2023/03/19 02:05:47;;;;;;;;;;;;;;;11.81;54.39;100344.34;4148701;28;20042;-72
2023/03/19 02:07:52;;;;;;;11.65;5.68;;;;;;;11.81;54.14;100341.75;4166791;28;19995;-72
2023/03/19 02:09:55;;;;;;;9.60;4.95;;;;;;;11.82;54.72;100340.91;4167075;28;20036;-76
2023/03/19 02:12:00;;;;;;;9.95;5.18;;;;;;;11.83;54.11;100347.88;4167859;28;20041;-72
2023/03/19 02:14:03;;;;;;;10.07;5.68;;;;;;;11.79;54.60;100353.91;4164287;28;20030;-72
2023/03/19 02:16:07;;;;;;;11.73;6.45;;;;;;;11.75;55.49;100358.19;4172672;28;20098;-72
2023/03/19 02:18:13;;;;;;;13.43;6.20;;;;;;;11.66;56.34;100358.13;4172016;28;20551;-72
2023/03/19 02:20:23;;;;;;;11.23;6.03;;;;;;;11.63;57.27;100361.59;4170309;28;20057;-72
2023/03/19 02:22:29;;;;;;;11.23;6.10;;;;;;;11.59;57.44;100358.94;4167021;28;20103;-72
2023/03/19 02:24:38;;;;;;;13.18;6.28;;;;;;;11.56;57.38;100357.19;4160744;28;20041;-72
2023/03/19 02:26:47;;;;;;;10.70;5.38;;;;;;;11.57;57.35;100352.88;4172687;28;20052;-72
2023/03/19 02:28:52;;;;;;;10.93;5.22;;;;;;;11.56;56.64;100356.31;4148816;28;20041;-72
2023/03/19 02:31:03;;;;;;;10.00;5.80;;;;;;;11.56;56.70;100364.13;4168675;28;20029;-72
2023/03/19 02:33:06;;;;;;;10.93;5.95;;;;;;;11.61;56.35;100354.63;4169236;28;20109;-72
2023/03/19 02:35:10;;;;;;;9.05;5.18;;;;;;;11.63;56.22;100360.72;4167821;28;20041;-72
2023/03/19 02:37:17;;;;;;;10.27;6.05;;;;;;;11.63;55.83;100356.38;4168922;28;20043;-72
2023/03/19 02:39:26;;;;;;;10.02;5.57;;;;;;;11.66;55.54;100356.41;4175634;28;20451;-72
2023/03/19 02:41:31;;;;;;;10.88;6.00;;;;;;;11.64;56.00;100360.75;4189890;28;20094;-72
2023/03/19 02:43:37;;;;;;;9.80;5.40;;;;;;;11.62;56.28;100358.97;4149774;28;20068;-72
2023/03/19 02:45:41;;;;;;;11.32;5.50;;;;;;;11.63;56.08;100363.34;4165333;28;20041;-72
2023/03/19 02:47:44;;;;;;;10.93;5.55;;;;;;;11.65;55.63;100361.59;4174015;28;20029;-72
2023/03/19 02:49:47;;;;;;;10.60;5.50;;;;;;;11.67;56.38;100354.69;4176617;28;20119;-71
2023/03/19 02:51:50;;;;;;;12.98;5.80;;;;;;;11.71;56.42;100359.06;4174725;28;20045;-72
2023/03/19 02:53:53;;;;;;;10.15;5.90;;;;;;;11.67;56.08;100370.31;4151678;28;20034;-72
2023/03/19 02:55:56;;;;;;;9.18;5.32;;;;;;;11.71;55.72;100364.28;4168846;28;20347;-72
2023/03/19 02:57:59;;;;;;;9.43;5.60;;;;;;;11.69;56.09;100366.84;4183418;28;20036;-72
2023/03/19 03:00:04;;;;;;;9.27;5.85;;;;;;;11.69;55.81;100361.63;4180360;28;20114;-71
2023/03/19 03:02:07;;;;;;;13.02;7.30;;;;;;;11.76;56.07;100367.78;4189124;28;20067;-72
2023/03/19 03:04:10;;;;;;;12.07;5.85;;;;;;;11.73;55.50;100367.75;4170943;28;20044;-72
2023/03/19 03:06:13;;;;;;;12.35;6.25;;;;;;;11.74;55.56;100364.28;4170451;28;20072;-72
2023/03/19 03:08:15;;;;;;;10.57;5.05;;;;;;;11.81;55.33;100368.69;4164997;28;20041;-71
2023/03/19 03:10:18;;;;;;;13.43;7.22;;;;;;;11.84;55.39;100366.09;4166044;28;20428;-72
2023/03/19 03:12:21;;;;;;;11.35;6.57;;;;;;;11.81;55.48;100360.00;4168268;28;20037;-72
2023/03/19 03:14:24;;;;;;;11.57;6.15;;;;;;;11.82;55.64;100367.81;4161865;28;20037;-72
2023/03/19 03:16:28;;;;;;;11.43;6.50;;;;;;;11.87;55.37;100366.13;4174220;28;20041;-72
2023/03/19 03:18:31;;;;;;;15.85;6.40;;;;;;;11.80;54.98;100374.75;4190887;28;20048;-72
2023/03/19 03:20:34;;;;;;;10.73;5.50;;;;;;;11.76;55.32;100372.97;4168763;28;20036;-72
2023/03/19 03:22:40;;;;;;;9.27;5.10;;;;;;;11.76;55.66;100379.94;4168183;28;20052;-72
2023/03/19 03:24:43;;;;;;;8.60;5.72;;;;;;;11.78;55.64;100376.47;4175325;28;20060;-72
2023/03/19 03:26:45;;;;;;;10.95;5.22;;;;;;;11.77;56.42;100384.25;4179631;28;20055;-72
2023/03/19 03:28:50;;;;;;;11.07;5.60;;;;;;;11.76;55.96;100378.19;4186230;28;20094;-72
2023/03/19 03:30:58;;;;;;;9.23;5.55;;;;;;;11.77;55.78;100384.25;4185342;28;20048;-72
2023/03/19 03:33:02;;;;;;;14.05;5.95;;;;;;;11.75;55.92;100386.84;4175893;28;20086;-72
2023/03/19 03:35:07;;;;;;;10.98;5.35;;;;;;;11.75;55.99;100389.47;4169770;28;20065;-72
2023/03/19 03:37:09;;;;;;;12.63;6.45;;;;;;;11.76;56.67;100383.41;4166328;28;20042;-72
2023/03/19 03:39:12;;;;;;;9.60;5.22;;;;;;;11.77;56.22;100377.34;4163612;28;20115;-72
2023/03/19 03:41:16;;;;;;;9.95;5.65;;;;;;;11.79;57.00;100390.38;4165153;28;20063;-72
2023/03/19 03:43:20;;;;;;;9.43;5.47;;;;;;;11.79;56.10;100393.84;4174139;28;20045;-72
2023/03/19 03:45:23;;;;;;;11.38;6.28;;;;;;;11.77;56.08;100392.06;4170535;28;20040;-73
2023/03/19 03:47:27;;;;;;;12.43;7.50;;;;;;;11.80;56.41;100379.09;4168935;28;20117;-72
2023/03/19 03:49:31;;;;;;;10.93;5.47;;;;;;;11.73;56.17;100385.97;4166230;28;20045;-72
2023/03/19 03:51:34;;;;;;;9.85;5.43;;;;;;;11.69;56.47;100386.81;4163143;28;20075;-72
2023/03/19 03:53:38;;;;;;;11.45;5.05;;;;;;;11.68;56.25;100390.25;4160572;28;20038;-72
2023/03/19 03:55:41;;;;;;;11.70;5.85;;;;;;;11.66;56.37;100390.25;4176419;28;20041;-72
2023/03/19 03:57:44;;;;;;;9.40;5.72;;;;;;;11.73;56.08;100392.94;4131007;28;20085;-72
2023/03/19 03:59:47;;;;;;;7.65;4.50;;;;;;;11.67;56.92;100394.59;4163272;28;20034;-72
2023/03/19 04:01:50;;;;;;;10.68;5.40;;;;;;;11.70;56.61;100392.03;4167835;28;20029;-72
2023/03/19 04:03:53;;;;;;;9.43;4.88;;;;;;;11.73;56.79;100392.94;4155111;28;20041;-72
2023/03/19 04:05:57;;;;;;;11.35;5.15;;;;;;;11.71;56.88;100387.72;4145633;28;20053;-72
2023/03/19 04:08:00;;;;;;;9.55;5.50;;;;;;;11.67;57.41;100388.53;4150439;28;20096;-72
2023/03/19 04:10:04;;;;;;;8.32;5.20;;;;;;;11.67;57.53;100386.78;4162186;28;20042;-72
2023/03/19 04:12:07;;;;;;;9.67;5.23;;;;;;;11.68;56.82;100392.88;4185559;28;20055;-72
2023/03/19 04:14:10;;;;;;;10.82;5.57;;;;;;;11.71;57.07;100390.31;4178224;28;20036;-72
2023/03/19 04:16:14;;;;;;;10.30;6.17;;;;;;;11.73;57.19;100393.78;4155223;28;20056;-72
2023/03/19 04:18:17;;;;;;;13.20;6.28;;;;;;;11.72;57.14;100401.59;4166345;28;20056;-72
2023/03/19 04:20:22;;;;;;;8.38;4.47;;;;;;;11.78;56.61;100407.72;4167016;28;20037;-72
2023/03/19 04:22:26;;;;;;;10.85;5.20;;;;;;;11.80;56.78;100402.53;4173975;28;20051;-72
2023/03/19 04:24:30;;;;;;;15.52;5.70;;;;;;;11.81;57.18;100406.88;4186576;28;20563;-72
2023/03/19 04:26:35;;;;;;;10.20;5.57;;;;;;;11.76;57.08;100411.19;4168709;28;20045;-72
2023/03/19 04:28:38;;;;;;;9.30;5.38;;;;;;;11.74;57.14;100416.38;4163914;28;20053;-72
2023/03/19 04:30:42;;;;;;;8.88;5.13;;;;;;;11.70;56.69;100417.22;4163645;28;20124;-72
2023/03/19 04:32:45;;;;;;;10.98;4.95;;;;;;;11.69;56.84;100420.66;4157663;28;20033;-72
2023/03/19 04:34:48;;;;;;;10.90;5.35;;;;;;;11.74;57.43;100416.38;4175174;28;20037;-73
2023/03/19 04:36:51;;;;;;;11.35;5.50;;;;;;;11.75;57.18;100419.84;4173142;28;20136;-72
2023/03/19 04:38:56;;;;;;;10.43;4.53;;;;;;;11.72;56.79;100418.09;4168059;28;20041;-72
2023/03/19 04:41:00;;;;;;;;;;;;;;;11.66;57.83;100415.44;4167843;28;20427;-72
2023/03/19 04:43:04;;;;;;;8.77;5.10;;;;;;;11.68;57.09;100418.91;4144567;28;19983;-72
2023/03/19 04:45:10;;;;;;;8.38;4.53;;;;;;;11.62;57.19;100424.97;4164959;28;20068;-72
2023/03/19 04:47:12;;;;;;;8.35;4.43;;;;;;;11.64;57.93;100427.56;4191814;28;20058;-72
2023/03/19 04:49:31;;;;;;;8.68;4.93;;;;;;;11.66;57.52;100423.25;4175746;28;20381;-72
2023/03/19 04:51:34;;;;;;;8.45;4.80;;;;;;;11.66;57.60;100424.09;4154750;28;20452;-72
2023/03/19 04:53:38;;;;;;;11.25;5.28;;;;;;;11.66;57.36;100421.50;4170182;28;20041;-72
2023/03/19 04:55:42;;;;;;;;;;;;;;;11.65;57.46;100421.50;4165463;28;20072;-72
2023/03/19 04:57:51;;;;;;;9.98;4.95;;;;;;;11.64;57.36;100428.44;4143761;28;19927;-72
2023/03/19 04:59:56;;;;;;;8.50;5.43;;;;;;;11.67;57.67;100431.06;4172400;28;20531;-72
2023/03/19 05:01:59;;;;;;;10.60;5.68;;;;;;;11.77;57.41;100432.03;4176095;28;20516;-71
2023/03/19 05:04:02;;;;;;;10.63;4.97;;;;;;;11.74;56.96;100434.63;4174866;28;20037;-72
2023/03/19 05:06:08;;;;;;;7.90;4.25;;;;;;;11.74;57.48;100431.13;4162570;28;20528;-72
2023/03/19 05:08:12;;;;;;;9.00;5.10;;;;;;;11.72;57.38;100425.91;4171251;28;20476;-72
2023/03/19 05:10:15;;;;;;;9.98;4.97;;;;;;;11.73;57.57;100430.25;4161458;28;20501;-72
2023/03/19 05:12:20;;;;;;;8.05;4.70;;;;;;;11.71;57.19;100426.78;4157568;28;20128;-72
2023/03/19 05:14:25;;;;;;;14.75;6.10;;;;;;;11.74;57.51;100426.81;4171297;28;20096;-72
2023/03/19 05:16:36;;;;;;;10.65;4.65;;;;;;;11.72;57.59;100432.84;4169578;28;20041;-72
2023/03/19 05:18:39;;;;;;;7.22;4.40;;;;;;;11.70;57.69;100427.63;4151141;28;20038;-72
2023/03/19 05:20:43;;;;;;;7.95;4.53;;;;;;;11.68;57.25;100426.72;4171430;28;20094;-72
2023/03/19 05:22:54;;;;;;;8.57;4.68;;;;;;;11.68;57.80;100430.22;4148139;28;20548;-72
2023/03/19 05:25:07;;;;;;;7.68;4.05;;;;;;;11.68;57.23;100432.81;4168081;28;20029;-72
2023/03/19 05:27:10;;;;;;;13.98;5.30;;;;;;;11.69;57.59;100429.34;4168134;28;20041;-72
2023/03/19 05:29:37;;;;;;;10.50;4.75;;;;;;;11.75;57.02;100428.53;4168529;28;20206;-72
2023/03/19 05:31:58;;;;;;;8.32;5.03;;;;;;;11.76;56.94;100435.50;4159962;28;20052;-72
2023/03/19 05:34:01;;;;;;;13.20;4.85;;;;;;;11.75;57.05;100432.88;4159124;28;20759;-72
2023/03/19 05:36:07;;;;;;;8.40;5.05;;;;;;;11.73;57.63;100438.06;4164059;28;20037;-72
2023/03/19 05:38:21;;;;;;;;;;;;;;;11.62;57.95;100439.69;4170972;28;20041;-72
2023/03/19 05:40:32;;;;;;;9.95;4.90;;;;;;;11.59;57.60;100442.28;4167176;28;19947;-72
2023/03/19 05:42:44;;;;;;;8.52;4.80;;;;;;;11.64;57.88;100436.25;4168029;28;20132;-71
2023/03/19 05:44:49;;;;;;;;;;;;;;;11.58;58.48;100446.63;4170940;28;20079;-72
2023/03/19 05:46:57;;;;;;;11.85;5.20;;;;;;;11.60;57.77;100452.69;4169595;28;19925;-72
2023/03/19 05:49:05;;;;;;;10.40;4.55;;;;;;;11.65;57.86;100458.84;4175224;28;20116;-72
2023/03/19 05:51:08;;;;;;;8.70;4.22;;;;;;;11.66;57.76;100459.69;4152181;28;20053;-72
2023/03/19 05:53:16;;;;;;;8.43;4.43;;;;;;;11.66;57.71;100457.09;4152693;28;20045;-72
2023/03/19 05:55:28;;;;;;;9.95;4.50;;;;;;;11.67;58.03;100461.44;4167397;28;20048;-72
2023/03/19 05:57:41;;;;;;;7.43;3.78;;;;;;;11.68;57.74;100460.56;4175559;28;20037;-72
2023/03/19 05:59:47;;;;;;;8.38;4.65;;;;;;;11.69;57.89;100462.31;4170969;28;20247;-72
2023/03/19 06:02:02;;;;;;;10.07;4.60;;;;;;;11.68;58.77;100464.06;4165099;28;20084;-72
2023/03/19 06:04:06;;;;;;;7.30;3.95;;;;;;;11.67;58.51;100466.66;4165576;28;20286;-72
2023/03/19 06:06:08;;;;;;;11.80;4.72;;;;;;;11.64;58.64;100462.28;4183640;28;20055;-73
2023/03/19 06:08:17;;;;;;;11.85;4.47;;;;;;;11.62;57.96;100468.34;4175322;28;20523;-72
2023/03/19 06:10:43;;;;;;;8.25;4.30;;;;;;;11.58;58.43;100467.44;4177088;28;20077;-72
2023/03/19 06:12:46;;;;;;;7.85;4.25;;;;;;;11.60;58.48;100464.84;4170374;28;20049;-72
2023/03/19 06:15:06;;;;;;;10.43;4.70;;;;;;;11.63;58.69;100468.34;4165584;28;20516;-72
2023/03/19 06:17:44;;;;;;;7.55;4.25;;;;;;;11.64;59.36;100470.09;4171099;28;20047;-72
2023/03/19 06:19:49;;;;;;;7.05;4.00;;;;;;;11.64;59.42;100474.44;4176347;28;20041;-72
2023/03/19 06:21:52;;;;;;;9.65;4.90;;;;;;;11.66;59.21;100467.50;4166734;28;20041;-72
2023/03/19 06:23:55;;;;;;;10.20;5.03;;;;;;;11.68;59.13;100478.81;4153822;28;20584;-72
2023/03/19 06:26:05;;;;;;;7.47;3.92;;;;;;;11.69;58.56;100473.59;4164488;28;20618;-72
2023/03/19 06:28:17;;;;;;;11.10;4.45;;;;;;;11.72;59.07;100475.38;4156161;28;20041;-72
2023/03/19 06:30:20;;;;;;;10.90;4.43;;;;;;;11.76;58.97;100484.13;4162456;28;20043;-72
2023/03/19 06:32:24;;;;;;;8.77;4.60;;;;;;;11.77;58.50;100478.91;4155103;28;20098;-72
2023/03/19 06:34:29;;;;;;;9.00;4.78;;;;;;;11.80;58.67;100481.53;4168406;28;20547;-71
2023/03/19 06:36:32;;;;;;;7.85;4.75;;;;;;;11.81;59.06;100485.00;4164997;28;20040;-72
2023/03/19 06:38:37;;;;;;;11.85;5.10;;;;;;;11.80;58.92;100485.91;4162712;28;20044;-72
2023/03/19 06:40:40;;;;;;;7.88;3.80;;;;;;;11.79;58.54;100492.81;4146957;28;20100;-72
2023/03/19 06:42:45;;;;;;;8.73;4.20;;;;;;;11.82;59.05;100482.41;4189953;28;20032;-73
2023/03/19 06:44:49;;;;;;;8.75;4.47;;;;;;;11.86;59.34;100484.19;4196696;22;20136;-67
2023/03/19 06:46:55;;;;;;;12.57;4.75;;;;;;;11.92;58.83;100487.72;4145838;28;20128;-66
2023/03/19 06:48:58;;;;;;;8.02;4.00;;;;;;;11.90;58.83;100484.22;4161527;28;20437;-66
2023/03/19 06:51:02;;;;;;;5.70;3.50;;;;;;;11.93;59.33;100482.56;4162108;28;20120;-66
2023/03/19 06:53:06;;;;;;;9.13;4.53;;;;;;;11.94;59.38;100491.25;4175096;28;20034;-66
2023/03/19 06:55:10;;;;;;;8.38;3.80;;;;;;;11.96;59.50;100494.72;4178861;28;20445;-66
2023/03/19 06:57:13;;;;;;;7.50;4.82;;;;;;;11.99;59.55;100498.25;4169979;28;20029;-66
2023/03/19 06:59:16;;;;;;;8.38;4.13;;;;;;;12.02;60.15;100502.63;4178393;28;20040;-67
2023/03/19 07:01:19;;;;;;;12.32;3.90;;;;;;;12.04;59.70;100496.53;4178708;28;20095;-66
2023/03/19 07:03:22;;;;;;;10.23;4.65;;;;;;;12.08;59.87;100499.19;4177946;28;20041;-67
2023/03/19 07:05:24;;;;;;;10.57;4.18;;;;;;;12.04;60.15;100503.50;4177522;28;20045;-66
2023/03/19 07:07:29;;;;;;;6.93;4.18;;;;;;;12.08;59.91;100502.66;4163146;28;20504;-67
2023/03/19 07:09:32;;;;;;;13.35;4.35;;;;;;;12.07;59.86;100500.91;4177019;28;20044;-67
2023/03/19 07:11:35;;;;;;;9.68;4.32;;;;;;;12.12;60.04;100500.94;4178599;28;20075;-67
2023/03/19 07:13:38;;;;;;;10.30;4.60;;;;;;;12.13;60.34;100506.16;4178944;28;20079;-67
2023/03/19 07:15:43;;;;;;;8.30;4.38;;;;;;;12.17;59.98;100505.34;4176098;28;20037;-67
2023/03/19 07:17:46;;;;;;;8.43;3.92;;;;;;;12.25;59.93;100522.78;4179595;28;20043;-67
2023/03/19 07:19:49;;;;;;;8.90;4.38;;;;;;;12.28;59.75;100520.19;4178333;28;20106;-67
2023/03/19 07:21:52;;;;;;;7.70;4.28;;;;;;;12.29;60.02;100508.91;4178087;28;20409;-66
2023/03/19 07:23:56;;;;;;;7.22;3.97;;;;;;;12.27;59.75;100510.66;4171237;28;20049;-67
2023/03/19 07:25:59;;;;;;;8.88;4.20;;;;;;;12.25;59.94;100520.16;4150184;28;20050;-67
2023/03/19 07:28:02;;;;;;;8.77;4.70;;;;;;;12.28;60.62;100522.81;4173940;28;20044;-67
2023/03/19 07:30:05;;;;;;;8.50;4.63;;;;;;;12.32;61.03;100520.22;4177874;28;20041;-66
2023/03/19 07:32:09;;;;;;;8.52;4.75;;;;;;;12.27;60.34;100527.16;4176911;28;20037;-66
2023/03/19 07:34:12;;;;;;;8.23;4.30;;;;;;;12.25;60.46;100531.50;4178069;28;20043;-66
2023/03/19 07:36:15;;;;;;;8.43;4.38;;;;;;;12.27;60.66;100527.16;4177769;28;20737;-66
2023/03/19 07:38:18;;;;;;;9.32;4.22;;;;;;;12.29;60.63;100528.03;4156355;28;20304;-66
2023/03/19 07:40:22;;;;;;;7.53;4.25;;;;;;;12.34;60.64;100523.75;4167038;28;20453;-66
2023/03/19 07:42:25;;;;;;;7.65;4.22;;;;;;;12.36;60.83;100534.19;4174841;28;20045;-66
2023/03/19 07:44:28;;;;;;;7.57;3.90;;;;;;;12.39;60.90;100531.59;4173367;28;20522;-67
2023/03/19 07:46:31;;;;;;;8.40;3.97;;;;;;;12.41;61.25;100529.84;4161415;28;20042;-67
2023/03/19 07:48:33;;;;;;;13.15;4.40;;;;;;;12.45;61.50;100533.38;4178189;28;20040;-67
2023/03/19 07:50:36;;;;;;;10.98;4.53;;;;;;;12.46;61.21;100522.97;4177016;28;20158;-67
2023/03/19 07:52:39;;;;;;;10.13;4.22;;;;;;;12.49;61.11;100522.13;4176961;28;20526;-67
2023/03/19 07:54:42;;;;;;;7.68;3.72;;;;;;;12.48;60.82;100513.41;4177531;28;20065;-68
2023/03/19 07:56:46;;;;;;;6.72;4.25;;;;;;;12.52;60.85;100516.91;4177610;28;20040;-67
2023/03/19 07:58:50;;;;;;;7.88;3.60;;;;;;;12.54;60.57;100513.47;4177146;28;20203;-67
2023/03/19 08:00:53;;;;;;;9.27;4.50;;;;;;;12.60;60.76;100511.75;4173362;28;20416;-68
2023/03/19 08:02:56;;;;;;;11.65;4.57;;;;;;;12.62;61.07;100525.69;4177637;28;20051;-67
2023/03/19 08:05:00;;;;;;;10.98;4.10;;;;;;;12.66;60.97;100509.16;4167100;28;20053;-67
2023/03/19 08:07:03;;;;;;;6.22;3.33;;;;;;;12.73;61.03;100514.47;4177645;28;20041;-67
2023/03/19 08:09:06;;;;;;;11.98;5.28;;;;;;;12.77;60.54;100511.88;4175517;28;20119;-68
2023/03/19 08:11:09;;;;;;;9.15;4.97;;;;;;;12.80;59.62;100510.13;4177411;28;20049;-67
2023/03/19 08:13:14;;;;;;;13.30;5.38;;;;;;;12.85;59.32;100513.66;4177074;28;20474;-67
2023/03/19 08:15:17;;;;;;;8.10;4.15;;;;;;;12.92;59.20;100511.94;4174475;28;20496;-67
2023/03/19 08:17:20;;;;;;;10.65;4.22;;;;;;;12.94;58.50;100515.44;4177321;28;20045;-67
2023/03/19 08:19:23;;;;;;;7.68;3.97;;;;;;;13.04;58.34;100521.56;4177194;28;20036;-68
2023/03/19 08:21:26;;;;;;;7.43;3.92;;;;;;;13.15;57.81;100519.88;4180766;28;20129;-67
2023/03/19 08:23:29;;;;;;;5.80;3.30;;;;;;;13.25;57.70;100511.22;4178359;28;20118;-67
2023/03/19 08:25:32;;;;;;;9.13;4.15;;;;;;;13.34;57.49;100517.34;4180932;28;20037;-68
2023/03/19 08:27:35;;;;;;;6.22;3.53;;;;;;;13.44;57.09;100516.56;4181075;28;20128;-67
2023/03/19 08:29:39;;;;;;;7.80;3.88;;;;;;;13.55;57.15;100520.09;4180367;28;20040;-67
2023/03/19 08:31:42;;;;;;;8.45;3.63;;;;;;;13.56;56.46;100521.81;4168808;28;20111;-67
2023/03/19 08:33:45;;;;;;;8.50;4.30;;;;;;;13.71;56.40;100525.31;4180489;28;20460;-67
2023/03/19 08:35:48;;;;;;;6.93;3.80;;;;;;;13.77;55.61;100520.13;4175883;28;20032;-67
2023/03/19 08:37:51;;;;;;;8.65;4.10;;;;;;;13.82;54.75;100523.63;4179907;28;20041;-67
2023/03/19 08:39:54;;;;;;;5.63;3.50;;;;;;;13.81;54.17;100532.31;4163627;28;20041;-66
2023/03/19 08:41:57;;;;;;;5.88;3.17;;;;;;;13.84;54.74;100526.22;4174359;28;20583;-66
2023/03/19 08:44:00;;;;;;;6.80;3.00;;;;;;;13.94;54.81;100530.59;4175508;28;20045;-66
2023/03/19 08:46:05;;;;;;;7.03;3.65;;;;;;;13.96;54.84;100534.97;4170197;28;20120;-67
2023/03/19 08:48:08;;;;;;;9.15;3.72;;;;;;;14.01;54.78;100534.09;4171925;28;20080;-67
2023/03/19 08:50:11;;;;;;;7.50;3.35;;;;;;;14.11;54.47;100539.34;4179600;28;20029;-67
2023/03/19 08:52:14;;;;;;;6.15;3.10;;;;;;;14.19;54.06;100526.25;4180023;28;20041;-67
2023/03/19 08:54:17;;;;;;;7.47;3.90;;;;;;;14.30;53.54;100519.28;4180637;28;20420;-67
2023/03/19 08:56:23;;;;;;;5.72;3.42;;;;;;;14.31;54.38;100523.66;4162776;28;20045;-67
2023/03/19 08:58:26;;;;;;;8.10;3.60;;;;;;;14.28;53.04;100523.66;4180205;28;20045;-67
2023/03/19 09:00:29;;;;;;;6.20;3.35;;;;;;;14.28;53.31;100526.28;4171667;28;20095;-67
2023/03/19 09:02:33;;;;;;;8.32;3.90;;;;;;;14.37;52.21;100524.50;4175003;28;20041;-67
2023/03/19 09:04:37;;;;;;;5.78;3.03;;;;;;;14.34;53.01;100520.19;4177058;28;20043;-67
2023/03/19 09:06:40;;;;;;;4.22;3.00;;;;;;;14.35;53.41;100523.66;4181575;28;20393;-68
2023/03/19 09:08:43;;;;;;;7.15;3.25;;;;;;;14.34;53.57;100527.13;4181185;28;20045;-67
2023/03/19 09:10:46;;;;;;;5.20;3.25;;;;;;;14.37;52.77;100533.25;4166584;28;20045;-67
2023/03/19 09:12:52;;;;;;;5.75;3.42;;;;;;;14.41;53.09;100537.63;4179082;28;20392;-67
2023/03/19 09:14:55;;;;;;;6.88;3.30;;;;;;;14.45;53.39;100534.09;4179588;28;20550;-67
2023/03/19 09:16:58;;;;;;;8.82;3.00;;;;;;;14.46;53.23;100533.25;4179902;28;20454;-67
2023/03/19 09:19:02;;;;;;;6.60;3.38;;;;;;;14.52;53.12;100537.59;4180196;28;20037;-67
2023/03/19 09:21:05;;;;;;;;;;;;;;;14.50;53.46;100531.50;4180339;28;20103;-67
2023/03/19 09:23:08;;;;;;;6.88;2.72;;;;;;;14.53;53.19;100528.88;4178245;28;19921;-67
2023/03/19 09:25:12;;;;;;;5.93;2.65;;;;;;;14.55;53.14;100528.88;4174823;28;20036;-67
2023/03/19 09:27:14;;;;;;;5.90;3.17;;;;;;;14.55;52.57;100541.97;4162810;28;20037;-67
2023/03/19 09:29:17;;;;;;;5.07;3.00;;;;;;;14.59;53.24;100541.09;4177015;28;20420;-67
2023/03/19 09:31:20;;;;;;;7.18;3.05;;;;;;;14.58;53.61;100537.59;4179847;28;20102;-67
2023/03/19 09:33:23;;;;;;;6.32;2.60;;;;;;;14.64;53.04;100535.00;4171498;28;20053;-67
2023/03/19 09:35:30;;;;;;;6.82;2.92;;;;;;;14.69;53.16;100539.34;4177772;28;20091;-67
2023/03/19 09:37:33;;;;;;;7.60;3.28;;;;;;;14.74;52.72;100540.22;4178902;28;20033;-67
2023/03/19 09:39:36;;;;;;;4.90;3.00;;;;;;;14.78;53.01;100528.88;4178352;28;20095;-67
2023/03/19 09:41:49;;;;;;;6.80;2.92;;;;;;;14.84;52.29;100532.34;4179590;28;20049;-67